sensor_id;sensor_type;location;lat;lon;timestamp;temperature;humidity
65826;DHT22;52586;-43.152;172.732;2023-04-03T00:02:04;20.60;51.70
65826;DHT22;52586;-43.152;172.732;2023-04-03T00:04:34;20.60;51.20
65826;DHT22;52586;-43.152;172.732;2023-04-03T00:07:07;20.60;51.10
65826;DHT22;52586;-43.152;172.732;2023-04-03T00:09:37;20.70;51.10
65826;DHT22;52586;-43.152;172.732;2023-04-03T00:12:08;20.60;51.00
65826;DHT22;52586;-43.152;172.732;2023-04-03T00:14:39;20.70;51.10
65826;DHT22;52586;-43.152;172.732;2023-04-03T00:17:10;20.70;51.10
65826;DHT22;52586;-43.152;172.732;2023-04-03T00:19:40;20.70;51.10
65826;DHT22;52586;-43.152;172.732;2023-04-03T00:22:13;20.80;51.10
65826;DHT22;52586;-43.152;172.732;2023-04-03T00:24:43;20.80;51.10
65826;DHT22;52586;-43.152;172.732;2023-04-03T00:27:14;20.80;51.00
65826;DHT22;52586;-43.152;172.732;2023-04-03T00:29:45;20.80;51.00
65826;DHT22;52586;-43.152;172.732;2023-04-03T00:32:16;20.80;51.00
65826;DHT22;52586;-43.152;172.732;2023-04-03T00:34:46;20.80;50.90
65826;DHT22;52586;-43.152;172.732;2023-04-03T00:37:19;20.80;51.00
65826;DHT22;52586;-43.152;172.732;2023-04-03T00:39:50;20.80;50.90
65826;DHT22;52586;-43.152;172.732;2023-04-03T00:42:20;20.90;50.90
65826;DHT22;52586;-43.152;172.732;2023-04-03T00:45:26;20.90;50.90
65826;DHT22;52586;-43.152;172.732;2023-04-03T00:47:58;20.90;50.90
65826;DHT22;52586;-43.152;172.732;2023-04-03T00:50:30;20.90;50.70
65826;DHT22;52586;-43.152;172.732;2023-04-03T00:53:04;20.90;50.60
65826;DHT22;52586;-43.152;172.732;2023-04-03T00:55:37;20.90;50.70
65826;DHT22;52586;-43.152;172.732;2023-04-03T00:58:08;21.00;50.60
65826;DHT22;52586;-43.152;172.732;2023-04-03T01:00:42;20.90;50.50
65826;DHT22;52586;-43.152;172.732;2023-04-03T01:03:13;20.90;50.50
65826;DHT22;52586;-43.152;172.732;2023-04-03T01:05:44;21.00;50.50
65826;DHT22;52586;-43.152;172.732;2023-04-03T01:08:17;21.00;50.50
65826;DHT22;52586;-43.152;172.732;2023-04-03T01:10:47;21.00;51.10
65826;DHT22;52586;-43.152;172.732;2023-04-03T01:13:26;21.10;50.50
65826;DHT22;52586;-43.152;172.732;2023-04-03T01:15:58;21.00;50.50
65826;DHT22;52586;-43.152;172.732;2023-04-03T01:18:31;21.10;50.50
65826;DHT22;52586;-43.152;172.732;2023-04-03T01:21:53;21.10;50.50
65826;DHT22;52586;-43.152;172.732;2023-04-03T01:24:34;21.10;50.50
65826;DHT22;52586;-43.152;172.732;2023-04-03T01:27:10;21.10;50.50
65826;DHT22;52586;-43.152;172.732;2023-04-03T01:29:42;21.20;50.50
65826;DHT22;52586;-43.152;172.732;2023-04-03T01:32:15;21.20;50.60
65826;DHT22;52586;-43.152;172.732;2023-04-03T01:34:46;21.20;50.60
65826;DHT22;52586;-43.152;172.732;2023-04-03T01:37:16;21.20;50.70
65826;DHT22;52586;-43.152;172.732;2023-04-03T01:39:47;21.20;50.60
65826;DHT22;52586;-43.152;172.732;2023-04-03T01:42:17;21.20;50.60
65826;DHT22;52586;-43.152;172.732;2023-04-03T01:44:48;21.30;50.60
65826;DHT22;52586;-43.152;172.732;2023-04-03T01:47:21;21.30;50.60
65826;DHT22;52586;-43.152;172.732;2023-04-03T01:49:52;21.30;50.70
65826;DHT22;52586;-43.152;172.732;2023-04-03T01:52:22;21.30;50.70
65826;DHT22;52586;-43.152;172.732;2023-04-03T01:54:53;21.30;50.70
65826;DHT22;52586;-43.152;172.732;2023-04-03T01:57:24;21.30;50.70
65826;DHT22;52586;-43.152;172.732;2023-04-03T01:59:54;21.40;50.70
65826;DHT22;52586;-43.152;172.732;2023-04-03T02:02:27;21.40;50.70
65826;DHT22;52586;-43.152;172.732;2023-04-03T02:04:57;21.40;50.70
65826;DHT22;52586;-43.152;172.732;2023-04-03T02:07:28;21.50;50.80
65826;DHT22;52586;-43.152;172.732;2023-04-03T02:09:59;21.50;50.70
65826;DHT22;52586;-43.152;172.732;2023-04-03T02:12:29;21.50;50.80
65826;DHT22;52586;-43.152;172.732;2023-04-03T02:15:00;21.50;50.70
65826;DHT22;52586;-43.152;172.732;2023-04-03T02:17:33;21.50;50.70
65826;DHT22;52586;-43.152;172.732;2023-04-03T02:20:03;21.50;50.70
65826;DHT22;52586;-43.152;172.732;2023-04-03T02:22:34;21.50;50.70
65826;DHT22;52586;-43.152;172.732;2023-04-03T02:25:05;21.50;50.70
65826;DHT22;52586;-43.152;172.732;2023-04-03T02:27:37;21.50;50.70
65826;DHT22;52586;-43.152;172.732;2023-04-03T02:30:08;21.60;51.30
65826;DHT22;52586;-43.152;172.732;2023-04-03T02:32:41;21.60;50.70
65826;DHT22;52586;-43.152;172.732;2023-04-03T02:35:12;21.60;50.60
65826;DHT22;52586;-43.152;172.732;2023-04-03T02:37:42;21.60;50.60
65826;DHT22;52586;-43.152;172.732;2023-04-03T02:40:13;21.60;50.60
65826;DHT22;52586;-43.152;172.732;2023-04-03T02:42:44;21.60;50.60
65826;DHT22;52586;-43.152;172.732;2023-04-03T02:45:15;21.70;50.70
65826;DHT22;52586;-43.152;172.732;2023-04-03T02:47:47;21.70;50.70
65826;DHT22;52586;-43.152;172.732;2023-04-03T02:50:18;21.70;50.60
65826;DHT22;52586;-43.152;172.732;2023-04-03T02:52:48;21.70;50.70
65826;DHT22;52586;-43.152;172.732;2023-04-03T02:55:19;21.70;50.60
65826;DHT22;52586;-43.152;172.732;2023-04-03T02:57:50;21.70;50.60
65826;DHT22;52586;-43.152;172.732;2023-04-03T03:00:21;21.70;50.60
65826;DHT22;52586;-43.152;172.732;2023-04-03T03:02:53;21.70;50.50
65826;DHT22;52586;-43.152;172.732;2023-04-03T03:05:24;21.70;50.50
65826;DHT22;52586;-43.152;172.732;2023-04-03T03:07:55;21.70;50.50
65826;DHT22;52586;-43.152;172.732;2023-04-03T03:10:26;21.80;50.50
65826;DHT22;52586;-43.152;172.732;2023-04-03T03:12:56;21.80;50.50
65826;DHT22;52586;-43.152;172.732;2023-04-03T03:15:27;21.80;50.50
65826;DHT22;52586;-43.152;172.732;2023-04-03T03:18:00;21.80;50.50
65826;DHT22;52586;-43.152;172.732;2023-04-03T03:20:30;21.90;50.60
65826;DHT22;52586;-43.152;172.732;2023-04-03T03:23:01;21.90;50.50
65826;DHT22;52586;-43.152;172.732;2023-04-03T03:25:31;21.90;50.50
65826;DHT22;52586;-43.152;172.732;2023-04-03T03:28:02;21.90;50.50
65826;DHT22;52586;-43.152;172.732;2023-04-03T03:30:33;21.90;50.40
65826;DHT22;52586;-43.152;172.732;2023-04-03T03:33:05;21.90;50.40
65826;DHT22;52586;-43.152;172.732;2023-04-03T03:35:36;21.90;50.40
65826;DHT22;52586;-43.152;172.732;2023-04-03T03:38:07;22.00;50.40
65826;DHT22;52586;-43.152;172.732;2023-04-03T03:40:38;22.00;50.40
65826;DHT22;52586;-43.152;172.732;2023-04-03T03:43:09;22.00;50.40
65826;DHT22;52586;-43.152;172.732;2023-04-03T03:45:39;22.00;50.40
65826;DHT22;52586;-43.152;172.732;2023-04-03T03:48:12;22.00;50.40
65826;DHT22;52586;-43.152;172.732;2023-04-03T03:50:43;22.00;50.30
65826;DHT22;52586;-43.152;172.732;2023-04-03T03:53:14;22.00;50.30
65826;DHT22;52586;-43.152;172.732;2023-04-03T03:55:45;22.00;50.30
65826;DHT22;52586;-43.152;172.732;2023-04-03T03:58:16;22.10;50.30
65826;DHT22;52586;-43.152;172.732;2023-04-03T04:00:47;22.10;50.30
65826;DHT22;52586;-43.152;172.732;2023-04-03T04:03:20;22.10;50.30
65826;DHT22;52586;-43.152;172.732;2023-04-03T04:05:51;22.10;50.30
65826;DHT22;52586;-43.152;172.732;2023-04-03T04:08:22;22.10;50.30
65826;DHT22;52586;-43.152;172.732;2023-04-03T04:10:53;22.10;50.30
65826;DHT22;52586;-43.152;172.732;2023-04-03T04:13:24;22.10;50.30
65826;DHT22;52586;-43.152;172.732;2023-04-03T04:15:54;22.10;50.20
65826;DHT22;52586;-43.152;172.732;2023-04-03T04:18:27;22.10;50.20
65826;DHT22;52586;-43.152;172.732;2023-04-03T04:20:57;22.10;50.20
65826;DHT22;52586;-43.152;172.732;2023-04-03T04:23:28;22.10;50.20
65826;DHT22;52586;-43.152;172.732;2023-04-03T04:25:59;22.10;50.20
65826;DHT22;52586;-43.152;172.732;2023-04-03T04:28:29;22.10;50.20
65826;DHT22;52586;-43.152;172.732;2023-04-03T04:31:00;22.10;50.10
65826;DHT22;52586;-43.152;172.732;2023-04-03T04:33:33;22.20;50.20
65826;DHT22;52586;-43.152;172.732;2023-04-03T04:36:03;22.10;50.10
65826;DHT22;52586;-43.152;172.732;2023-04-03T04:38:34;22.20;50.10
65826;DHT22;52586;-43.152;172.732;2023-04-03T04:41:06;22.20;50.10
65826;DHT22;52586;-43.152;172.732;2023-04-03T04:43:36;22.20;50.10
65826;DHT22;52586;-43.152;172.732;2023-04-03T04:46:09;22.20;50.10
65826;DHT22;52586;-43.152;172.732;2023-04-03T04:48:42;22.20;50.00
65826;DHT22;52586;-43.152;172.732;2023-04-03T04:51:12;22.20;50.00
65826;DHT22;52586;-43.152;172.732;2023-04-03T04:53:43;22.20;49.90
65826;DHT22;52586;-43.152;172.732;2023-04-03T04:56:14;22.20;49.90
65826;DHT22;52586;-43.152;172.732;2023-04-03T04:58:44;22.20;49.90
65826;DHT22;52586;-43.152;172.732;2023-04-03T05:01:15;22.20;49.90
65826;DHT22;52586;-43.152;172.732;2023-04-03T05:03:48;22.20;49.90
65826;DHT22;52586;-43.152;172.732;2023-04-03T05:06:18;22.20;49.90
65826;DHT22;52586;-43.152;172.732;2023-04-03T05:08:49;22.20;49.90
65826;DHT22;52586;-43.152;172.732;2023-04-03T05:11:20;22.20;50.00
65826;DHT22;52586;-43.152;172.732;2023-04-03T05:13:51;22.20;50.50
65826;DHT22;52586;-43.152;172.732;2023-04-03T05:16:21;22.20;49.90
65826;DHT22;52586;-43.152;172.732;2023-04-03T05:18:54;22.20;49.80
65826;DHT22;52586;-43.152;172.732;2023-04-03T05:21:25;22.20;49.70
65826;DHT22;52586;-43.152;172.732;2023-04-03T05:23:59;22.20;49.70
65826;DHT22;52586;-43.152;172.732;2023-04-03T05:26:31;22.20;49.70
65826;DHT22;52586;-43.152;172.732;2023-04-03T05:29:02;22.20;49.70
65826;DHT22;52586;-43.152;172.732;2023-04-03T05:31:32;22.20;49.00
65826;DHT22;52586;-43.152;172.732;2023-04-03T05:34:05;22.10;47.90
65826;DHT22;52586;-43.152;172.732;2023-04-03T05:36:35;22.00;47.50
65826;DHT22;52586;-43.152;172.732;2023-04-03T05:39:06;21.90;47.40
65826;DHT22;52586;-43.152;172.732;2023-04-03T05:41:37;21.70;47.60
65826;DHT22;52586;-43.152;172.732;2023-04-03T05:44:07;21.60;47.90
65826;DHT22;52586;-43.152;172.732;2023-04-03T05:46:38;21.60;48.10
65826;DHT22;52586;-43.152;172.732;2023-04-03T05:49:11;21.50;48.30
65826;DHT22;52586;-43.152;172.732;2023-04-03T05:51:41;21.50;48.50
65826;DHT22;52586;-43.152;172.732;2023-04-03T05:54:16;21.50;48.60
65826;DHT22;52586;-43.152;172.732;2023-04-03T05:56:47;21.50;48.70
65826;DHT22;52586;-43.152;172.732;2023-04-03T05:59:18;21.50;48.70
65826;DHT22;52586;-43.152;172.732;2023-04-03T06:01:49;21.50;48.70
65826;DHT22;52586;-43.152;172.732;2023-04-03T06:04:22;21.50;48.70
65826;DHT22;52586;-43.152;172.732;2023-04-03T06:06:54;21.50;48.80
65826;DHT22;52586;-43.152;172.732;2023-04-03T06:09:26;21.50;48.80
65826;DHT22;52586;-43.152;172.732;2023-04-03T06:11:58;21.60;48.80
65826;DHT22;52586;-43.152;172.732;2023-04-03T06:14:29;21.50;48.80
65826;DHT22;52586;-43.152;172.732;2023-04-03T06:17:00;21.60;48.90
65826;DHT22;52586;-43.152;172.732;2023-04-03T06:19:32;21.50;48.90
65826;DHT22;52586;-43.152;172.732;2023-04-03T06:22:03;21.60;49.00
65826;DHT22;52586;-43.152;172.732;2023-04-03T06:24:35;21.50;48.90
65826;DHT22;52586;-43.152;172.732;2023-04-03T06:27:05;21.50;48.90
65826;DHT22;52586;-43.152;172.732;2023-04-03T06:29:36;21.60;49.00
65826;DHT22;52586;-43.152;172.732;2023-04-03T06:32:07;21.50;48.90
65826;DHT22;52586;-43.152;172.732;2023-04-03T06:34:39;21.60;49.00
65826;DHT22;52586;-43.152;172.732;2023-04-03T06:37:15;21.50;48.80
65826;DHT22;52586;-43.152;172.732;2023-04-03T06:39:47;21.50;48.80
65826;DHT22;52586;-43.152;172.732;2023-04-03T06:42:17;21.50;48.80
65826;DHT22;52586;-43.152;172.732;2023-04-03T06:44:48;21.50;48.80
65826;DHT22;52586;-43.152;172.732;2023-04-03T06:47:19;21.50;48.80
65826;DHT22;52586;-43.152;172.732;2023-04-03T06:49:52;21.50;48.80
65826;DHT22;52586;-43.152;172.732;2023-04-03T06:52:22;21.50;48.80
65826;DHT22;52586;-43.152;172.732;2023-04-03T06:54:54;21.50;48.90
65826;DHT22;52586;-43.152;172.732;2023-04-03T06:57:25;21.50;48.90
65826;DHT22;52586;-43.152;172.732;2023-04-03T06:59:56;21.50;48.90
65826;DHT22;52586;-43.152;172.732;2023-04-03T07:02:26;21.50;48.90
65826;DHT22;52586;-43.152;172.732;2023-04-03T07:04:59;21.40;48.90
65826;DHT22;52586;-43.152;172.732;2023-04-03T07:07:30;21.40;48.90
65826;DHT22;52586;-43.152;172.732;2023-04-03T07:10:01;21.50;48.90
65826;DHT22;52586;-43.152;172.732;2023-04-03T07:12:32;21.40;48.90
65826;DHT22;52586;-43.152;172.732;2023-04-03T07:15:03;21.40;48.90
65826;DHT22;52586;-43.152;172.732;2023-04-03T07:17:34;21.40;48.90
65826;DHT22;52586;-43.152;172.732;2023-04-03T07:20:08;21.40;48.90
65826;DHT22;52586;-43.152;172.732;2023-04-03T07:22:39;21.40;48.90
65826;DHT22;52586;-43.152;172.732;2023-04-03T07:25:10;21.40;48.90
65826;DHT22;52586;-43.152;172.732;2023-04-03T07:27:40;21.30;48.90
65826;DHT22;52586;-43.152;172.732;2023-04-03T07:30:11;21.30;48.90
65826;DHT22;52586;-43.152;172.732;2023-04-03T07:32:43;21.30;48.90
65826;DHT22;52586;-43.152;172.732;2023-04-03T07:35:15;21.30;48.90
65826;DHT22;52586;-43.152;172.732;2023-04-03T07:37:46;21.20;48.90
65826;DHT22;52586;-43.152;172.732;2023-04-03T07:40:17;21.30;49.00
65826;DHT22;52586;-43.152;172.732;2023-04-03T07:42:47;21.20;48.90
65826;DHT22;52586;-43.152;172.732;2023-04-03T07:45:18;21.20;48.90
65826;DHT22;52586;-43.152;172.732;2023-04-03T07:47:50;21.20;49.00
65826;DHT22;52586;-43.152;172.732;2023-04-03T07:50:23;21.20;49.00
65826;DHT22;52586;-43.152;172.732;2023-04-03T07:52:54;21.20;49.00
65826;DHT22;52586;-43.152;172.732;2023-04-03T07:55:25;21.20;49.00
65826;DHT22;52586;-43.152;172.732;2023-04-03T07:57:56;21.10;48.90
65826;DHT22;52586;-43.152;172.732;2023-04-03T08:00:26;21.10;48.90
65826;DHT22;52586;-43.152;172.732;2023-04-03T08:02:57;21.10;48.90
65826;DHT22;52586;-43.152;172.732;2023-04-03T08:05:30;21.10;48.90
65826;DHT22;52586;-43.152;172.732;2023-04-03T08:08:00;21.10;48.90
65826;DHT22;52586;-43.152;172.732;2023-04-03T08:10:31;21.10;48.90
65826;DHT22;52586;-43.152;172.732;2023-04-03T08:13:02;21.00;48.90
65826;DHT22;52586;-43.152;172.732;2023-04-03T08:15:33;21.00;48.90
65826;DHT22;52586;-43.152;172.732;2023-04-03T08:18:04;21.00;48.90
65826;DHT22;52586;-43.152;172.732;2023-04-03T08:20:37;21.00;49.00
65826;DHT22;52586;-43.152;172.732;2023-04-03T08:23:09;21.00;49.00
65826;DHT22;52586;-43.152;172.732;2023-04-03T08:25:40;20.90;48.90
65826;DHT22;52586;-43.152;172.732;2023-04-03T08:28:12;20.90;49.00
65826;DHT22;52586;-43.152;172.732;2023-04-03T08:30:43;20.90;49.00
65826;DHT22;52586;-43.152;172.732;2023-04-03T08:33:14;20.90;49.00
65826;DHT22;52586;-43.152;172.732;2023-04-03T08:35:46;20.90;49.00
65826;DHT22;52586;-43.152;172.732;2023-04-03T08:38:17;20.80;49.00
65826;DHT22;52586;-43.152;172.732;2023-04-03T08:40:48;20.80;49.00
65826;DHT22;52586;-43.152;172.732;2023-04-03T08:43:33;20.80;48.90
65826;DHT22;52586;-43.152;172.732;2023-04-03T08:46:07;20.80;49.00
65826;DHT22;52586;-43.152;172.732;2023-04-03T08:48:42;20.80;49.00
65826;DHT22;52586;-43.152;172.732;2023-04-03T08:51:16;20.70;49.00
65826;DHT22;52586;-43.152;172.732;2023-04-03T08:53:52;20.70;49.00
65826;DHT22;52586;-43.152;172.732;2023-04-03T08:56:26;20.70;49.10
65826;DHT22;52586;-43.152;172.732;2023-04-03T08:58:58;20.70;49.10
65826;DHT22;52586;-43.152;172.732;2023-04-03T09:01:35;20.70;49.10
65826;DHT22;52586;-43.152;172.732;2023-04-03T09:04:13;20.70;49.20
65826;DHT22;52586;-43.152;172.732;2023-04-03T09:06:48;20.70;49.10
65826;DHT22;52586;-43.152;172.732;2023-04-03T09:09:30;20.60;49.10
65826;DHT22;52586;-43.152;172.732;2023-04-03T09:12:09;20.60;49.10
65826;DHT22;52586;-43.152;172.732;2023-04-03T09:14:46;20.60;49.10
65826;DHT22;52586;-43.152;172.732;2023-04-03T09:17:26;20.60;49.10
65826;DHT22;52586;-43.152;172.732;2023-04-03T09:20:06;20.60;49.10
65826;DHT22;52586;-43.152;172.732;2023-04-03T09:22:43;20.60;49.10
65826;DHT22;52586;-43.152;172.732;2023-04-03T09:25:15;20.50;49.10
65826;DHT22;52586;-43.152;172.732;2023-04-03T09:27:48;20.50;49.10
65826;DHT22;52586;-43.152;172.732;2023-04-03T09:30:20;20.50;49.10
65826;DHT22;52586;-43.152;172.732;2023-04-03T09:32:52;20.50;49.20
65826;DHT22;52586;-43.152;172.732;2023-04-03T09:35:25;20.50;49.20
65826;DHT22;52586;-43.152;172.732;2023-04-03T09:38:00;20.40;49.10
65826;DHT22;52586;-43.152;172.732;2023-04-03T09:40:36;20.40;49.20
65826;DHT22;52586;-43.152;172.732;2023-04-03T09:43:28;20.40;49.20
65826;DHT22;52586;-43.152;172.732;2023-04-03T09:46:17;20.40;48.60
65826;DHT22;52586;-43.152;172.732;2023-04-03T09:48:57;20.30;48.40
65826;DHT22;52586;-43.152;172.732;2023-04-03T09:51:29;20.30;48.50
65826;DHT22;52586;-43.152;172.732;2023-04-03T09:57:11;20.20;48.70
65826;DHT22;52586;-43.152;172.732;2023-04-03T09:59:46;20.20;48.90
65826;DHT22;52586;-43.152;172.732;2023-04-03T10:02:32;20.20;49.00
65826;DHT22;52586;-43.152;172.732;2023-04-03T10:05:04;20.20;49.10
65826;DHT22;52586;-43.152;172.732;2023-04-03T10:07:36;20.20;49.20
65826;DHT22;52586;-43.152;172.732;2023-04-03T10:10:20;20.10;49.20
65826;DHT22;52586;-43.152;172.732;2023-04-03T10:13:06;20.10;49.20
65826;DHT22;52586;-43.152;172.732;2023-04-03T10:15:41;20.10;49.30
65826;DHT22;52586;-43.152;172.732;2023-04-03T10:18:30;20.10;49.30
65826;DHT22;52586;-43.152;172.732;2023-04-03T10:21:06;20.10;49.40
65826;DHT22;52586;-43.152;172.732;2023-04-03T10:23:41;20.00;49.30
65826;DHT22;52586;-43.152;172.732;2023-04-03T10:26:22;20.00;49.40
65826;DHT22;52586;-43.152;172.732;2023-04-03T10:29:00;20.00;49.40
65826;DHT22;52586;-43.152;172.732;2023-04-03T10:31:40;20.00;49.40
65826;DHT22;52586;-43.152;172.732;2023-04-03T10:34:17;20.00;49.40
65826;DHT22;52586;-43.152;172.732;2023-04-03T10:36:56;20.00;49.40
65826;DHT22;52586;-43.152;172.732;2023-04-03T10:39:34;20.00;49.50
65826;DHT22;52586;-43.152;172.732;2023-04-03T10:42:14;19.90;49.40
65826;DHT22;52586;-43.152;172.732;2023-04-03T10:45:06;19.90;49.40
65826;DHT22;52586;-43.152;172.732;2023-04-03T10:47:43;19.90;49.40
65826;DHT22;52586;-43.152;172.732;2023-04-03T10:50:39;19.90;49.40
65826;DHT22;52586;-43.152;172.732;2023-04-03T10:53:21;19.90;49.50
65826;DHT22;52586;-43.152;172.732;2023-04-03T10:56:02;19.90;49.50
65826;DHT22;52586;-43.152;172.732;2023-04-03T10:58:41;19.80;49.50
65826;DHT22;52586;-43.152;172.732;2023-04-03T11:01:16;19.80;49.50
65826;DHT22;52586;-43.152;172.732;2023-04-03T11:03:51;19.80;49.50
65826;DHT22;52586;-43.152;172.732;2023-04-03T11:06:24;19.80;49.50
65826;DHT22;52586;-43.152;172.732;2023-04-03T11:08:59;19.80;49.50
65826;DHT22;52586;-43.152;172.732;2023-04-03T11:11:33;19.80;49.50
65826;DHT22;52586;-43.152;172.732;2023-04-03T11:14:11;19.80;49.50
65826;DHT22;52586;-43.152;172.732;2023-04-03T11:16:48;19.70;49.50
65826;DHT22;52586;-43.152;172.732;2023-04-03T11:19:34;19.70;49.50
65826;DHT22;52586;-43.152;172.732;2023-04-03T11:22:10;19.70;49.50
65826;DHT22;52586;-43.152;172.732;2023-04-03T11:24:46;19.70;49.50
65826;DHT22;52586;-43.152;172.732;2023-04-03T11:27:25;19.70;49.50
65826;DHT22;52586;-43.152;172.732;2023-04-03T11:29:59;19.60;49.50
65826;DHT22;52586;-43.152;172.732;2023-04-03T11:35:28;19.60;49.50
65826;DHT22;52586;-43.152;172.732;2023-04-03T11:38:01;19.60;49.50
65826;DHT22;52586;-43.152;172.732;2023-04-03T11:40:34;19.60;49.50
65826;DHT22;52586;-43.152;172.732;2023-04-03T11:43:17;19.60;49.60
65826;DHT22;52586;-43.152;172.732;2023-04-03T11:45:58;19.60;49.60
65826;DHT22;52586;-43.152;172.732;2023-04-03T11:48:49;19.60;49.60
65826;DHT22;52586;-43.152;172.732;2023-04-03T11:51:38;19.50;49.60
65826;DHT22;52586;-43.152;172.732;2023-04-03T11:54:42;19.50;49.60
65826;DHT22;52586;-43.152;172.732;2023-04-03T12:00:51;19.50;49.60
65826;DHT22;52586;-43.152;172.732;2023-04-03T12:07:11;19.40;49.60
65826;DHT22;52586;-43.152;172.732;2023-04-03T12:13:13;19.40;49.60
65826;DHT22;52586;-43.152;172.732;2023-04-03T12:15:55;19.40;49.60
65826;DHT22;52586;-43.152;172.732;2023-04-03T12:18:57;19.40;49.60
65826;DHT22;52586;-43.152;172.732;2023-04-03T12:24:33;19.30;49.70
65826;DHT22;52586;-43.152;172.732;2023-04-03T12:27:21;19.40;49.70
65826;DHT22;52586;-43.152;172.732;2023-04-03T12:29:59;19.30;49.70
65826;DHT22;52586;-43.152;172.732;2023-04-03T12:32:54;19.30;49.70
65826;DHT22;52586;-43.152;172.732;2023-04-03T12:35:30;19.30;49.70
65826;DHT22;52586;-43.152;172.732;2023-04-03T12:41:21;19.20;49.70
65826;DHT22;52586;-43.152;172.732;2023-04-03T12:44:03;19.20;49.70
65826;DHT22;52586;-43.152;172.732;2023-04-03T12:46:38;19.20;49.60
65826;DHT22;52586;-43.152;172.732;2023-04-03T12:49:26;19.20;49.70
65826;DHT22;52586;-43.152;172.732;2023-04-03T12:52:01;19.20;49.70
65826;DHT22;52586;-43.152;172.732;2023-04-03T12:54:35;19.20;49.70
65826;DHT22;52586;-43.152;172.732;2023-04-03T12:57:16;19.20;49.70
65826;DHT22;52586;-43.152;172.732;2023-04-03T12:59:47;19.20;49.70
65826;DHT22;52586;-43.152;172.732;2023-04-03T13:02:26;19.20;49.80
65826;DHT22;52586;-43.152;172.732;2023-04-03T13:04:58;19.10;49.70
65826;DHT22;52586;-43.152;172.732;2023-04-03T13:07:31;19.20;49.70
65826;DHT22;52586;-43.152;172.732;2023-04-03T13:10:14;19.10;49.70
65826;DHT22;52586;-43.152;172.732;2023-04-03T13:12:54;19.10;49.80
65826;DHT22;52586;-43.152;172.732;2023-04-03T13:15:27;19.10;49.70
65826;DHT22;52586;-43.152;172.732;2023-04-03T13:17:58;19.10;49.80
65826;DHT22;52586;-43.152;172.732;2023-04-03T13:20:30;19.00;49.70
65826;DHT22;52586;-43.152;172.732;2023-04-03T13:23:03;19.00;49.70
65826;DHT22;52586;-43.152;172.732;2023-04-03T13:25:39;19.00;49.80
65826;DHT22;52586;-43.152;172.732;2023-04-03T13:28:14;19.00;50.30
65826;DHT22;52586;-43.152;172.732;2023-04-03T13:30:59;19.00;49.70
65826;DHT22;52586;-43.152;172.732;2023-04-03T13:33:32;19.00;49.80
65826;DHT22;52586;-43.152;172.732;2023-04-03T13:36:07;19.00;49.70
65826;DHT22;52586;-43.152;172.732;2023-04-03T13:38:38;19.00;49.70
65826;DHT22;52586;-43.152;172.732;2023-04-03T13:41:25;19.00;49.80
65826;DHT22;52586;-43.152;172.732;2023-04-03T13:44:16;19.00;49.80
65826;DHT22;52586;-43.152;172.732;2023-04-03T13:46:48;18.90;49.70
65826;DHT22;52586;-43.152;172.732;2023-04-03T13:49:20;18.90;49.70
65826;DHT22;52586;-43.152;172.732;2023-04-03T13:51:51;18.90;49.70
65826;DHT22;52586;-43.152;172.732;2023-04-03T13:54:36;18.90;49.70
65826;DHT22;52586;-43.152;172.732;2023-04-03T13:57:14;18.90;49.80
65826;DHT22;52586;-43.152;172.732;2023-04-03T13:59:47;18.90;49.70
65826;DHT22;52586;-43.152;172.732;2023-04-03T14:02:20;18.90;49.80
65826;DHT22;52586;-43.152;172.732;2023-04-03T14:04:56;18.80;49.70
65826;DHT22;52586;-43.152;172.732;2023-04-03T14:07:29;18.90;49.80
65826;DHT22;52586;-43.152;172.732;2023-04-03T14:10:00;18.80;49.80
65826;DHT22;52586;-43.152;172.732;2023-04-03T14:12:34;18.80;49.80
65826;DHT22;52586;-43.152;172.732;2023-04-03T14:15:16;18.80;49.80
65826;DHT22;52586;-43.152;172.732;2023-04-03T14:17:48;18.80;49.80
65826;DHT22;52586;-43.152;172.732;2023-04-03T14:20:21;18.80;49.80
65826;DHT22;52586;-43.152;172.732;2023-04-03T14:22:52;18.80;49.80
65826;DHT22;52586;-43.152;172.732;2023-04-03T14:25:29;18.80;49.90
65826;DHT22;52586;-43.152;172.732;2023-04-03T14:28:00;18.70;49.80
65826;DHT22;52586;-43.152;172.732;2023-04-03T14:30:34;18.70;49.80
65826;DHT22;52586;-43.152;172.732;2023-04-03T14:33:05;18.70;49.90
65826;DHT22;52586;-43.152;172.732;2023-04-03T14:35:37;18.70;49.80
65826;DHT22;52586;-43.152;172.732;2023-04-03T14:38:20;18.70;49.90
65826;DHT22;52586;-43.152;172.732;2023-04-03T14:40:51;18.60;49.90
65826;DHT22;52586;-43.152;172.732;2023-04-03T14:43:22;18.70;49.90
65826;DHT22;52586;-43.152;172.732;2023-04-03T14:45:56;18.70;49.90
65826;DHT22;52586;-43.152;172.732;2023-04-03T14:48:28;18.70;49.90
65826;DHT22;52586;-43.152;172.732;2023-04-03T14:50:59;18.70;49.90
65826;DHT22;52586;-43.152;172.732;2023-04-03T14:53:30;18.70;49.90
65826;DHT22;52586;-43.152;172.732;2023-04-03T14:56:01;18.70;49.90
65826;DHT22;52586;-43.152;172.732;2023-04-03T14:58:32;18.60;49.90
65826;DHT22;52586;-43.152;172.732;2023-04-03T15:01:06;18.60;49.90
65826;DHT22;52586;-43.152;172.732;2023-04-03T15:03:36;18.60;49.90
65826;DHT22;52586;-43.152;172.732;2023-04-03T15:06:08;18.60;49.90
65826;DHT22;52586;-43.152;172.732;2023-04-03T15:08:39;18.50;49.90
65826;DHT22;52586;-43.152;172.732;2023-04-03T15:11:11;18.50;49.90
65826;DHT22;52586;-43.152;172.732;2023-04-03T15:13:42;18.50;49.90
65826;DHT22;52586;-43.152;172.732;2023-04-03T15:16:17;18.50;49.90
65826;DHT22;52586;-43.152;172.732;2023-04-03T15:18:49;18.50;49.90
65826;DHT22;52586;-43.152;172.732;2023-04-03T15:21:19;18.50;49.90
65826;DHT22;52586;-43.152;172.732;2023-04-03T15:23:50;18.50;49.90
65826;DHT22;52586;-43.152;172.732;2023-04-03T15:26:21;18.50;49.90
65826;DHT22;52586;-43.152;172.732;2023-04-03T15:28:52;18.50;49.90
65826;DHT22;52586;-43.152;172.732;2023-04-03T15:31:24;18.50;49.90
65826;DHT22;52586;-43.152;172.732;2023-04-03T15:33:55;18.50;49.90
65826;DHT22;52586;-43.152;172.732;2023-04-03T15:36:26;18.40;49.80
65826;DHT22;52586;-43.152;172.732;2023-04-03T15:38:56;18.40;49.90
65826;DHT22;52586;-43.152;172.732;2023-04-03T15:41:27;18.40;49.90
65826;DHT22;52586;-43.152;172.732;2023-04-03T15:43:58;18.40;49.90
65826;DHT22;52586;-43.152;172.732;2023-04-03T15:46:30;18.40;49.90
65826;DHT22;52586;-43.152;172.732;2023-04-03T15:49:02;18.40;49.90
65826;DHT22;52586;-43.152;172.732;2023-04-03T15:51:33;18.40;49.90